createdAt,value
2022-09-28T00:03:28.250Z,65.97
2022-09-28T00:08:31.714Z,65.89
2022-09-28T00:13:35.363Z,65.76
2022-09-28T00:18:38.383Z,65.93
2022-09-28T00:24:01.792Z,65.89
2022-09-28T00:29:04.953Z,65.74
2022-09-28T00:34:08.638Z,65.73
2022-09-28T00:39:13.048Z,65.51
2022-09-28T00:44:27.927Z,65.37
2022-09-28T00:49:42.911Z,65.45
2022-09-28T00:54:49.097Z,65.46
2022-09-28T00:59:55.898Z,65.50
2022-09-28T01:05:04.277Z,65.48
2022-09-28T01:10:08.449Z,65.67
2022-09-28T01:15:12.102Z,65.43
2022-09-28T01:20:41.105Z,65.24
2022-09-28T01:26:02.571Z,65.34
2022-09-28T01:31:22.613Z,65.30
2022-09-28T01:36:30.785Z,65.51
2022-09-28T01:41:36.936Z,65.59
2022-09-28T01:46:44.844Z,65.47
2022-09-28T01:52:27.993Z,65.47
2022-09-28T01:57:38.553Z,65.64
2022-09-28T02:02:49.347Z,65.69
2022-09-28T02:08:03.508Z,65.89
2022-09-28T02:13:14.233Z,66.08
2022-09-28T02:18:17.515Z,66.11
2022-09-28T02:23:23.944Z,66.04
2022-09-28T02:28:27.203Z,65.96
2022-09-28T02:33:38.910Z,65.86
2022-09-28T02:38:42.143Z,65.92
2022-09-28T02:44:23.660Z,65.81
2022-09-28T02:49:36.600Z,65.99
2022-09-28T02:54:57.872Z,65.86
2022-09-28T03:00:15.518Z,65.68
2022-09-28T03:05:21.256Z,65.91
2022-09-28T03:10:33.691Z,65.65
2022-09-28T03:15:37.073Z,65.51
2022-09-28T03:20:39.958Z,65.36
2022-09-28T03:25:42.801Z,65.32
2022-09-28T03:30:45.668Z,64.90
2022-09-28T03:35:50.926Z,64.53
2022-09-28T03:40:58.519Z,64.36
2022-09-28T03:46:02.919Z,64.22
2022-09-28T03:51:09.930Z,64.19
2022-09-28T03:56:16.129Z,64.15
2022-09-28T04:01:19.236Z,64.08
2022-09-28T04:06:24.225Z,64.00
2022-09-28T04:11:34.939Z,63.81
2022-09-28T04:16:48.306Z,63.84
2022-09-28T04:21:52.433Z,63.71
2022-09-28T04:27:18.347Z,63.64
2022-09-28T04:32:21.653Z,63.52
2022-09-28T04:37:25.111Z,63.58
2022-09-28T04:42:28.161Z,63.71
2022-09-28T04:47:31.052Z,63.79
2022-09-28T04:52:45.911Z,63.78
2022-09-28T04:57:48.809Z,64.13
2022-09-28T05:02:51.718Z,63.79
2022-09-28T05:08:17.603Z,63.97
2022-09-28T05:13:21.223Z,63.92
2022-09-28T05:18:24.923Z,63.75
2022-09-28T05:23:37.829Z,64.04
2022-09-28T05:28:40.821Z,63.71
2022-09-28T05:34:18.771Z,63.97
2022-09-28T05:39:23.057Z,64.04
2022-09-28T05:44:26.134Z,64.38
2022-09-28T05:49:31.865Z,64.21
2022-09-28T05:54:36.291Z,63.97
2022-09-28T05:59:39.397Z,64.15
2022-09-28T06:04:42.485Z,64.07
2022-09-28T06:09:46.221Z,64.31
2022-09-28T06:15:13.333Z,63.83
2022-09-28T06:20:16.352Z,63.80
2022-09-28T06:25:42.143Z,63.91
2022-09-28T06:30:45.269Z,63.86
2022-09-28T06:35:52.641Z,63.93
2022-09-28T06:40:57.700Z,63.72
2022-09-28T06:46:02.019Z,63.71
2022-09-28T06:51:33.677Z,63.75
2022-09-28T06:56:55.667Z,63.66
2022-09-28T07:01:58.616Z,63.37
2022-09-28T07:07:20.052Z,63.29
2022-09-28T07:12:35.293Z,63.07
2022-09-28T07:17:55.252Z,62.70
2022-09-28T07:23:17.407Z,62.30
2022-09-28T07:28:41.600Z,62.17
2022-09-28T07:33:56.571Z,61.91
2022-09-28T07:39:19.494Z,61.85
2022-09-28T07:44:23.049Z,61.55
2022-09-28T07:49:30.875Z,61.47
2022-09-28T07:55:09.094Z,60.68
2022-09-28T08:00:25.389Z,60.08
2022-09-28T08:05:31.371Z,59.83
2022-09-28T08:10:34.834Z,59.24
2022-09-28T08:16:01.380Z,58.91
2022-09-28T08:21:34.551Z,58.61
2022-09-28T08:26:37.385Z,57.95
2022-09-28T08:31:41.242Z,57.57
2022-09-28T08:37:11.249Z,57.11
2022-09-28T08:42:42.145Z,56.88
2022-09-28T08:48:36.364Z,56.65
2022-09-28T08:54:11.948Z,56.42
2022-09-28T08:59:41.857Z,56.07
2022-09-28T09:04:52.119Z,55.52
2022-09-28T09:10:28.757Z,54.92
2022-09-28T09:15:41.429Z,54.16
2022-09-28T09:21:13.907Z,53.44
2022-09-28T09:26:25.997Z,53.15
2022-09-28T09:31:35.495Z,53.03
2022-09-28T09:37:08.909Z,52.37
2022-09-28T09:42:47.367Z,52.03
2022-09-28T09:48:21.837Z,51.58
2022-09-28T09:53:37.663Z,51.19
2022-09-28T09:58:50.284Z,51.45
2022-09-28T10:03:59.137Z,51.75
2022-09-28T10:09:06.848Z,51.79
2022-09-28T10:14:17.543Z,51.58
2022-09-28T10:19:32.956Z,51.41
2022-09-28T10:25:15.936Z,51.38
2022-09-28T10:30:24.744Z,51.49
2022-09-28T10:35:31.754Z,51.20
2022-09-28T10:40:44.802Z,50.89
2022-09-28T10:45:49.782Z,50.23
2022-09-28T10:51:06.441Z,50.10
2022-09-28T10:56:21.933Z,49.74
2022-09-28T11:01:33.903Z,49.43
2022-09-28T11:06:40.297Z,49.28
2022-09-28T11:11:44.197Z,49.11
2022-09-28T11:16:47.410Z,48.84
2022-09-28T11:21:51.733Z,48.87
2022-09-28T11:27:00.139Z,48.70
2022-09-28T11:32:06.756Z,48.94
2022-09-28T11:37:40.338Z,48.69
2022-09-28T11:43:07.416Z,48.35
2022-09-28T11:48:23.993Z,48.34
2022-09-28T11:53:45.657Z,48.49
2022-09-28T11:58:53.356Z,48.37
2022-09-28T12:04:12.223Z,47.78
2022-09-28T12:09:47.158Z,46.73
2022-09-28T12:14:59.946Z,46.22
2022-09-28T12:20:25.145Z,46.20
2022-09-28T12:25:34.359Z,46.20
2022-09-28T12:30:40.789Z,46.28
2022-09-28T12:36:11.452Z,46.28
2022-09-28T12:41:42.510Z,45.80
2022-09-28T12:46:54.054Z,45.65
2022-09-28T12:52:00.439Z,45.64
2022-09-28T12:57:29.304Z,45.41
2022-09-28T13:03:45.915Z,45.46
2022-09-28T13:09:07.382Z,45.35
2022-09-28T13:14:32.128Z,44.83
2022-09-28T13:19:52.927Z,44.12
2022-09-28T13:25:02.249Z,43.36
2022-09-28T13:30:08.528Z,42.83
2022-09-28T13:35:19.568Z,42.54
2022-09-28T13:41:01.413Z,42.38
2022-09-28T13:46:22.381Z,42.16
2022-09-28T13:51:39.429Z,42.28
2022-09-28T13:57:13.427Z,42.54
2022-09-28T14:02:41.511Z,42.58
2022-09-28T14:08:08.918Z,42.76
2022-09-28T14:13:12.407Z,42.92
2022-09-28T14:18:34.353Z,43.12
2022-09-28T14:24:14.852Z,43.39
2022-09-28T14:29:33.970Z,43.52
2022-09-28T14:34:43.743Z,43.67
2022-09-28T14:40:05.958Z,43.86
2022-09-28T14:45:11.712Z,43.75
2022-09-28T14:50:20.550Z,43.85
2022-09-28T14:55:31.595Z,43.87
2022-09-28T15:00:35.122Z,44.17
2022-09-28T15:05:49.506Z,44.62
2022-09-28T15:10:55.673Z,47.85
2022-09-28T15:16:05.682Z,46.44
2022-09-28T15:21:09.055Z,45.96
2022-09-28T15:26:32.386Z,46.05
2022-09-28T15:31:36.694Z,46.55
2022-09-28T15:36:42.198Z,47.25
2022-09-28T15:41:48.804Z,48.48
2022-09-28T15:47:26.523Z,48.90
2022-09-28T15:52:46.629Z,49.32
2022-09-28T15:57:50.585Z,49.46
2022-09-28T16:03:06.894Z,49.39
2022-09-28T16:08:24.831Z,49.04
2022-09-28T16:13:27.765Z,48.77
2022-09-28T16:18:32.510Z,48.57
2022-09-28T16:23:37.006Z,48.44
2022-09-28T16:28:39.839Z,48.04
2022-09-28T16:33:54.220Z,47.88
2022-09-28T16:38:57.416Z,47.70
2022-09-28T16:44:02.478Z,47.46
2022-09-28T16:49:07.178Z,47.42
2022-09-28T16:54:37.927Z,47.50
2022-09-28T16:59:41.137Z,47.48
2022-09-28T17:04:47.583Z,47.45
2022-09-28T17:09:50.901Z,47.47
2022-09-28T17:14:53.850Z,47.51
2022-09-28T17:19:56.817Z,47.62
2022-09-28T17:24:59.652Z,47.54
2022-09-28T17:30:03.887Z,47.61
2022-09-28T17:35:23.499Z,47.71
2022-09-28T17:40:29.801Z,47.71
2022-09-28T17:45:39.143Z,47.83
2022-09-28T17:50:46.440Z,47.95
2022-09-28T17:55:49.542Z,48.19
2022-09-28T18:00:52.801Z,48.17
2022-09-28T18:06:04.518Z,48.43
2022-09-28T18:11:08.317Z,48.41
2022-09-28T18:16:11.724Z,48.53
2022-09-28T18:21:15.120Z,48.62
2022-09-28T18:26:21.146Z,48.69
2022-09-28T18:31:24.220Z,49.03
2022-09-28T18:36:36.038Z,49.20
2022-09-28T18:41:39.186Z,49.19
2022-09-28T18:46:42.756Z,49.49
2022-09-28T18:51:45.718Z,49.40
2022-09-28T18:56:50.408Z,49.60
2022-09-28T19:01:53.492Z,49.67
2022-09-28T19:06:56.416Z,49.82
2022-09-28T19:11:59.376Z,49.79
2022-09-28T19:17:02.352Z,49.96
2022-09-28T19:22:05.542Z,50.06
2022-09-28T19:27:08.471Z,50.05
2022-09-28T19:32:12.756Z,50.16
2022-09-28T19:37:15.792Z,50.45
2022-09-28T19:42:18.632Z,50.40
2022-09-28T19:47:21.803Z,50.49
2022-09-28T19:52:24.745Z,50.72
2022-09-28T19:57:32.609Z,50.91
2022-09-28T20:02:36.414Z,51.13
2022-09-28T20:07:39.958Z,51.39
2022-09-28T20:12:43.224Z,51.55
2022-09-28T20:17:46.264Z,52.08
2022-09-28T20:22:49.197Z,52.10
2022-09-28T20:27:52.139Z,52.59
2022-09-28T20:32:54.952Z,52.85
2022-09-28T20:37:59.586Z,53.20
2022-09-28T20:43:02.718Z,53.53
2022-09-28T20:48:06.594Z,53.70
2022-09-28T20:53:09.455Z,54.09
2022-09-28T20:58:12.432Z,54.27
2022-09-28T21:03:15.204Z,54.57
2022-09-28T21:08:18.155Z,54.72
2022-09-28T21:13:22.812Z,55.11
2022-09-28T21:18:25.690Z,55.40
2022-09-28T21:23:28.634Z,55.87
2022-09-28T21:28:32.356Z,56.11
2022-09-28T21:33:35.303Z,56.37
2022-09-28T21:38:38.180Z,56.68
2022-09-28T21:43:41.096Z,56.90
2022-09-28T21:48:43.992Z,57.07
2022-09-28T21:53:48.597Z,57.17
2022-09-28T21:58:51.593Z,57.43
2022-09-28T22:03:56.057Z,57.77
2022-09-28T22:08:58.988Z,57.89
2022-09-28T22:14:02.084Z,58.19
2022-09-28T22:19:05.172Z,58.39
2022-09-28T22:24:08.105Z,58.63
2022-09-28T22:29:11.000Z,58.94
2022-09-28T22:34:13.887Z,59.10
2022-09-28T22:39:16.839Z,59.66
2022-09-28T22:44:20.345Z,59.86
2022-09-28T22:49:24.564Z,60.18
2022-09-28T22:54:27.929Z,60.39
2022-09-28T22:59:30.999Z,60.52
2022-09-28T23:04:33.917Z,60.55
2022-09-28T23:09:36.745Z,60.70
2022-09-28T23:14:39.710Z,60.89
2022-09-28T23:19:42.670Z,61.23
2022-09-28T23:24:45.510Z,61.25
2022-09-28T23:29:49.074Z,61.25
2022-09-28T23:34:52.064Z,61.31
2022-09-28T23:39:54.997Z,61.50
2022-09-28T23:44:57.971Z,61.83
2022-09-28T23:50:00.767Z,61.83
2022-09-28T23:55:04.109Z,62.17
